Terminal Aerodrome Forecast
Issued by NWS

Home | Current Version | Previous Version | Text Only | Print | Product List | Glossary On
Versions: 1 2 3 4 5 6 7 8 9 10 11 12 13 14 15 16 17 18 19 20
744
FTUS43 KDLH 281503 AAA
TAFBRD
TAF AMD
KBRD 281503Z 2815/2912 00000KT P6SM BKN008
      TEMPO 2815/2816 SCT008
     FM281600 16004KT P6SM SCT008
     FM281700 16007KT P6SM SCT015
     FM281800 16010G16KT P6SM BKN040
     FM290000 17008KT P6SM VCTS BKN040CB=

USA.gov is the U.S. government's official web portal to all federal, state and local government web resources and services.